DLH812 EDLW-EDLW

Flight info

Callsign DLH812
Flight time 0h 44m
Altitude 13000
Route DCT EDLP DCT
Aircraft A320/M-SDE3FGHIRWY/LB1

Departure

Time 2026-05-05 18:35
Airport Dortmund Airport (EDLW)

Arrival

Time 2026-05-05 19:19
Airport Dortmund Airport (EDLW)
Time Latitude Longitude Altitude Speed Heading
2026-05-05 18:09 51.51555 7.61237 428 ft 0 kts 151°
2026-05-05 18:27 51.51560 7.61233 428 ft 3 kts 151°
2026-05-05 18:27 51.51583 7.61212 426 ft 4 kts 150°
2026-05-05 18:27 51.51601 7.61195 428 ft 4 kts 159°
2026-05-05 18:27 51.51625 7.61191 429 ft 4 kts 211°
2026-05-05 18:28 51.51652 7.61255 429 ft 2 kts 240°
2026-05-05 18:28 51.51653 7.61257 429 ft 1 kts 240°
2026-05-05 18:30 51.51620 7.61166 437 ft 15 kts 240°
2026-05-05 18:30 51.51573 7.61012 439 ft 16 kts 244°
2026-05-05 18:31 51.51518 7.60846 427 ft 18 kts 240°
2026-05-05 18:31 51.51480 7.60741 434 ft 0 kts 241°
2026-05-05 18:32 51.51475 7.60724 430 ft 8 kts 240°
2026-05-05 18:32 51.51409 7.60540 432 ft 23 kts 242°
2026-05-05 18:33 51.51367 7.60312 431 ft 21 kts 310°
2026-05-05 18:33 51.51481 7.60227 425 ft 12 kts 21°
2026-05-05 18:33 51.51488 7.60243 430 ft 0 kts 64°
2026-05-05 18:34 51.51496 7.60265 428 ft 13 kts 60°
2026-05-05 18:35 51.51684 7.60801 414 ft 93 kts 60°
2026-05-05 18:35 51.52111 7.62008 426 ft 149 kts 60°
2026-05-05 18:35 51.52625 7.63460 994 ft 150 kts 62°
2026-05-05 18:35 51.53104 7.64951 1629 ft 151 kts 62°
2026-05-05 18:36 51.53607 7.66527 2030 ft 168 kts 63°
2026-05-05 18:36 51.54170 7.68299 2277 ft 187 kts 63°
2026-05-05 18:36 51.54775 7.70199 2685 ft 196 kts 63°
2026-05-05 18:36 51.55378 7.72260 3042 ft 210 kts 73°
2026-05-05 18:37 51.55370 7.74667 3389 ft 228 kts 108°
2026-05-05 18:37 51.54621 7.77048 3740 ft 251 kts 122°
2026-05-05 18:37 51.53646 7.79487 4346 ft 265 kts 123°
2026-05-05 18:37 51.52629 7.81967 4951 ft 272 kts 123°
2026-05-05 18:38 51.51583 7.84505 5132 ft 273 kts 123°
2026-05-05 18:38 51.50526 7.87068 5178 ft 272 kts 123°
2026-05-05 18:38 51.49402 7.89500 5179 ft 271 kts 137°
2026-05-05 18:38 51.47784 7.90999 5176 ft 270 kts 166°
2026-05-05 18:39 51.45955 7.91098 5180 ft 269 kts 194°
2026-05-05 18:39 51.44298 7.89789 5174 ft 268 kts 222°
2026-05-05 18:39 51.43179 7.87424 5185 ft 268 kts 241°
2026-05-05 18:39 51.42311 7.84781 5180 ft 268 kts 243°
2026-05-05 18:40 51.41472 7.82117 5177 ft 268 kts 244°
2026-05-05 18:40 51.40635 7.79441 5175 ft 268 kts 244°
2026-05-05 18:40 51.39802 7.76772 5180 ft 268 kts 244°
2026-05-05 18:40 51.38967 7.74095 5176 ft 268 kts 244°
2026-05-05 18:41 51.38134 7.71427 5180 ft 268 kts 244°
2026-05-05 18:41 51.37310 7.68785 5165 ft 256 kts 244°
2026-05-05 18:41 51.36556 7.66373 5174 ft 231 kts 244°
2026-05-05 18:41 51.35847 7.64106 5190 ft 227 kts 244°
2026-05-05 18:42 51.35139 7.61845 5181 ft 226 kts 244°
2026-05-05 18:42 51.34437 7.59600 5176 ft 226 kts 244°
2026-05-05 18:42 51.33733 7.57353 5182 ft 226 kts 243°
2026-05-05 18:42 51.33031 7.55111 5176 ft 226 kts 243°
2026-05-05 18:43 51.32392 7.52824 5163 ft 226 kts 257°
2026-05-05 18:43 51.32450 7.50358 5127 ft 227 kts 289°
2026-05-05 18:43 51.33327 7.48271 4682 ft 228 kts 322°
2026-05-05 18:43 51.34661 7.46958 4259 ft 224 kts 332°
2026-05-05 18:44 51.36051 7.45839 3834 ft 223 kts 333°
2026-05-05 18:44 51.37437 7.44755 3414 ft 221 kts 333°
2026-05-05 18:44 51.38815 7.43680 2952 ft 220 kts 333°
2026-05-05 18:44 51.40178 7.42617 2692 ft 217 kts 333°
2026-05-05 18:45 51.41476 7.41606 2652 ft 200 kts 334°
2026-05-05 18:45 51.42764 7.41149 2696 ft 188 kts
2026-05-05 18:45 51.43971 7.41910 2698 ft 186 kts 30°
2026-05-05 18:45 51.45060 7.43015 2678 ft 184 kts 34°
2026-05-05 18:46 51.45942 7.44527 2612 ft 197 kts 59°
2026-05-05 18:46 51.46612 7.46411 2390 ft 185 kts 60°
2026-05-05 18:46 51.47213 7.48126 2167 ft 170 kts 60°
2026-05-05 18:46 51.47781 7.49737 1957 ft 163 kts 60°
2026-05-05 18:47 51.48334 7.51304 1765 ft 153 kts 60°
2026-05-05 18:47 51.48842 7.52740 1560 ft 148 kts 60°
2026-05-05 18:47 51.49347 7.54171 1362 ft 146 kts 60°
2026-05-05 18:47 51.49846 7.55583 1165 ft 145 kts 60°
2026-05-05 18:48 51.50341 7.56987 984 ft 144 kts 60°
2026-05-05 18:48 51.50834 7.58379 796 ft 144 kts 60°
2026-05-05 18:48 51.51328 7.59779 557 ft 143 kts 60°
2026-05-05 18:48 51.51807 7.61152 416 ft 132 kts 60°
2026-05-05 18:49 51.52230 7.62343 414 ft 128 kts 60°
2026-05-05 18:49 51.52710 7.63684 859 ft 142 kts 60°
2026-05-05 18:49 51.53194 7.65116 1538 ft 149 kts 62°
2026-05-05 18:49 51.53689 7.66658 2053 ft 163 kts 63°
2026-05-05 18:50 51.54237 7.68378 2205 ft 183 kts 63°
2026-05-05 18:50 51.54847 7.70295 2352 ft 202 kts 63°
2026-05-05 18:50 51.55509 7.72373 2558 ft 218 kts 63°
2026-05-05 18:50 51.56239 7.74665 2685 ft 242 kts 63°
2026-05-05 18:51 51.57036 7.77167 2937 ft 257 kts 63°
2026-05-05 18:51 51.57778 7.79826 3422 ft 263 kts 76°
2026-05-05 18:51 51.57797 7.82740 3897 ft 266 kts 105°
2026-05-05 18:51 51.56945 7.85355 4371 ft 267 kts 133°
2026-05-05 18:52 51.55445 7.87006 4851 ft 268 kts 161°
2026-05-05 18:52 51.53594 7.87385 5127 ft 270 kts 188°
2026-05-05 18:52 51.51851 7.86368 5181 ft 269 kts 216°
2026-05-05 18:52 51.50539 7.84255 5179 ft 269 kts 232°
2026-05-05 18:53 51.49396 7.81870 5181 ft 269 kts 233°
2026-05-05 18:53 51.48278 7.79472 5175 ft 269 kts 233°
2026-05-05 18:53 51.47161 7.77066 5179 ft 268 kts 233°
2026-05-05 18:53 51.46049 7.74666 5179 ft 268 kts 233°
2026-05-05 18:54 51.44935 7.72264 5175 ft 269 kts 233°
2026-05-05 18:54 51.43815 7.69848 5181 ft 269 kts 233°
2026-05-05 18:54 51.42704 7.67452 5183 ft 269 kts 233°
2026-05-05 18:54 51.41588 7.65044 5173 ft 269 kts 233°
2026-05-05 18:55 51.40470 7.62635 5056 ft 271 kts 233°
2026-05-05 18:55 51.39519 7.60086 4576 ft 264 kts 249°
2026-05-05 18:55 51.38937 7.57299 4098 ft 264 kts 253°
2026-05-05 18:55 51.38410 7.54496 3620 ft 262 kts 253°
2026-05-05 18:56 51.37893 7.51717 3235 ft 259 kts 253°
2026-05-05 18:56 51.37554 7.49887 3167 ft 259 kts 254°
2026-05-05 18:56 51.37345 7.47039 3172 ft 260 kts 278°
2026-05-05 18:56 51.37981 7.44448 3167 ft 239 kts 308°
2026-05-05 18:57 51.39140 7.42709 3189 ft 225 kts 322°
2026-05-05 18:57 51.40377 7.41214 3178 ft 221 kts 323°
2026-05-05 18:57 51.41618 7.39756 3177 ft 220 kts 323°
2026-05-05 18:57 51.42854 7.38310 3178 ft 220 kts 323°
2026-05-05 18:58 51.44091 7.36863 3178 ft 220 kts 323°
2026-05-05 18:58 51.45326 7.35417 3178 ft 220 kts 323°
2026-05-05 18:58 51.46558 7.33975 3178 ft 220 kts 323°
2026-05-05 18:58 51.47791 7.32532 3178 ft 219 kts 324°
2026-05-05 18:59 51.49167 7.31533 3178 ft 219 kts 353°
2026-05-05 18:59 51.50657 7.31921 3178 ft 220 kts 28°
2026-05-05 18:59 51.51753 7.33598 3177 ft 221 kts 63°
2026-05-05 18:59 51.52071 7.35975 3175 ft 222 kts 96°
2026-05-05 19:00 51.51537 7.38265 2850 ft 220 kts 130°
2026-05-05 19:00 51.50300 7.39617 2681 ft 217 kts 167°
2026-05-05 19:00 51.48816 7.39570 2678 ft 212 kts 197°
2026-05-05 19:00 51.47515 7.38850 2688 ft 185 kts 198°
2026-05-05 19:01 51.46277 7.38817 2684 ft 178 kts 159°
2026-05-05 19:01 51.45374 7.40082 2672 ft 176 kts 115°
2026-05-05 19:01 51.45119 7.41977 2667 ft 175 kts 81°
2026-05-05 19:01 51.45647 7.43700 2668 ft 176 kts 54°
2026-05-05 19:02 51.46262 7.45376 2509 ft 175 kts 61°
2026-05-05 19:02 51.46850 7.47083 2315 ft 174 kts 60°
2026-05-05 19:02 51.47440 7.48766 2095 ft 173 kts 60°
2026-05-05 19:02 51.48010 7.50384 1870 ft 163 kts 60°
2026-05-05 19:03 51.48563 7.51950 1668 ft 158 kts 60°
2026-05-05 19:03 51.49083 7.53424 1460 ft 148 kts 60°
2026-05-05 19:03 51.49587 7.54850 1270 ft 145 kts 60°
2026-05-05 19:03 51.50082 7.56252 1078 ft 144 kts 60°
2026-05-05 19:04 51.50573 7.57650 847 ft 143 kts 60°
2026-05-05 19:04 51.51062 7.59029 670 ft 142 kts 60°
2026-05-05 19:04 51.51551 7.60414 457 ft 141 kts 60°
2026-05-05 19:04 51.52003 7.61709 413 ft 124 kts 60°
2026-05-05 19:05 51.52485 7.63083 758 ft 153 kts 62°
2026-05-05 19:05 51.52984 7.64630 1549 ft 154 kts 62°
2026-05-05 19:05 51.53476 7.66179 2076 ft 162 kts 63°
2026-05-05 19:05 51.54016 7.67877 2253 ft 183 kts 63°
2026-05-05 19:06 51.54627 7.69796 2508 ft 204 kts 63°
2026-05-05 19:06 51.55296 7.71898 2933 ft 216 kts 63°
2026-05-05 19:06 51.56009 7.74136 3416 ft 233 kts 63°
2026-05-05 19:06 51.56782 7.76562 3907 ft 255 kts 63°
2026-05-05 19:07 51.57461 7.79264 4385 ft 266 kts 80°
2026-05-05 19:07 51.57351 7.82223 4866 ft 269 kts 109°
2026-05-05 19:07 51.56414 7.84784 5130 ft 272 kts 135°
2026-05-05 19:07 51.54841 7.86397 5177 ft 270 kts 163°
2026-05-05 19:08 51.52973 7.86624 5180 ft 268 kts 192°
2026-05-05 19:08 51.51204 7.85694 5181 ft 269 kts 202°
2026-05-05 19:08 51.49499 7.84537 5178 ft 269 kts 204°
2026-05-05 19:08 51.47780 7.83356 5177 ft 269 kts 204°
2026-05-05 19:09 51.46057 7.82170 5177 ft 269 kts 204°
2026-05-05 19:09 51.44338 7.80987 5177 ft 269 kts 204°
2026-05-05 19:09 51.42617 7.79801 5173 ft 269 kts 204°
2026-05-05 19:09 51.40898 7.78616 5181 ft 269 kts 204°
2026-05-05 19:10 51.39179 7.77432 5179 ft 269 kts 204°
2026-05-05 19:10 51.37460 7.76248 5175 ft 269 kts 204°
2026-05-05 19:10 51.35740 7.75063 5177 ft 265 kts 204°
2026-05-05 19:10 51.34109 7.73941 5179 ft 247 kts 204°
2026-05-05 19:11 51.32586 7.72897 5168 ft 229 kts 204°
2026-05-05 19:11 51.31151 7.71915 5177 ft 223 kts 204°
2026-05-05 19:11 51.29733 7.70920 5174 ft 222 kts 209°
2026-05-05 19:11 51.28642 7.69256 5183 ft 220 kts 243°
2026-05-05 19:12 51.28332 7.66911 5181 ft 219 kts 277°
2026-05-05 19:12 51.28855 7.64644 5190 ft 220 kts 300°
2026-05-05 19:12 51.29670 7.62566 5180 ft 221 kts 303°
2026-05-05 19:12 51.30523 7.60518 5180 ft 221 kts 303°
2026-05-05 19:13 51.31377 7.58484 5178 ft 221 kts 303°
2026-05-05 19:13 51.32234 7.56447 5179 ft 221 kts 303°
2026-05-05 19:13 51.33095 7.54398 5111 ft 223 kts 303°
2026-05-05 19:13 51.33975 7.52302 4618 ft 230 kts 303°
2026-05-05 19:14 51.34854 7.50208 4247 ft 223 kts 303°
2026-05-05 19:14 51.35709 7.48172 3845 ft 219 kts 303°
2026-05-05 19:14 51.36553 7.46161 3414 ft 217 kts 303°
2026-05-05 19:14 51.37386 7.44175 3181 ft 213 kts 303°
2026-05-05 19:15 51.38215 7.42196 3185 ft 214 kts 303°
2026-05-05 19:15 51.39065 7.40240 3177 ft 214 kts 311°
2026-05-05 19:15 51.40302 7.38984 3179 ft 214 kts 347°
2026-05-05 19:15 51.41772 7.39106 3176 ft 215 kts 21°
2026-05-05 19:16 51.43093 7.40239 3183 ft 217 kts 32°
2026-05-05 19:16 51.44371 7.41575 2843 ft 221 kts 33°
2026-05-05 19:16 51.45464 7.43221 2684 ft 216 kts 57°
2026-05-05 19:16 51.46220 7.45306 2520 ft 213 kts 60°
2026-05-05 19:17 51.46923 7.47308 2289 ft 203 kts 60°
2026-05-05 19:17 51.47597 7.49219 2062 ft 191 kts 60°
2026-05-05 19:17 51.48223 7.50991 1794 ft 175 kts 60°
2026-05-05 19:17 51.48800 7.52622 1563 ft 163 kts 60°
2026-05-05 19:18 51.49341 7.54154 1371 ft 152 kts 60°
2026-05-05 19:18 51.49848 7.55591 1164 ft 146 kts 60°
2026-05-05 19:18 51.50343 7.56989 983 ft 143 kts 60°
2026-05-05 19:18 51.50842 7.58372 766 ft 142 kts 60°
2026-05-05 19:19 51.51324 7.59753 550 ft 141 kts 60°
2026-05-05 19:19 51.51800 7.61128 413 ft 132 kts 60°
2026-05-05 19:19 51.52165 7.62183 412 ft 81 kts 59°
2026-05-05 19:19 51.52317 7.62594 409 ft 25 kts 60°
2026-05-05 19:20 51.52243 7.62765 405 ft 18 kts 158°
2026-05-05 19:20 51.52152 7.62678 408 ft 16 kts 240°
2026-05-05 19:20 51.52098 7.62523 411 ft 16 kts 240°
2026-05-05 19:20 51.52046 7.62373 414 ft 15 kts 240°
2026-05-05 19:21 51.52000 7.62243 418 ft 11 kts 240°
2026-05-05 19:21 51.51955 7.62115 417 ft 23 kts 241°
2026-05-05 19:21 51.51875 7.61885 428 ft 23 kts 241°
2026-05-05 19:21 51.51795 7.61659 425 ft 23 kts 241°
2026-05-05 19:22 51.51719 7.61434 428 ft 22 kts 242°
2026-05-05 19:22 51.51643 7.61219 435 ft 23 kts 235°
2026-05-05 19:22 51.51570 7.61056 440 ft 12 kts 200°
2026-05-05 19:22 51.51532 7.61063 445 ft 1 kts 166°
2026-05-05 19:23 51.51495 7.61097 432 ft 0 kts 141°
2026-05-05 19:23 51.51481 7.61113 432 ft 4 kts 142°
2026-05-05 19:23 51.51476 7.61120 434 ft 0 kts 142°